Time;durP1;ratioP1;P1;durP2;ratioP2;P2;SDS_P1;SDS_P2;PMS_P1;PMS_P2;Temp;Humidity;BMP_temperature;BMP_pressure;BME280_temperature;BME280_humidity;BME280_pressure;Samples;Min_cycle;Max_cycle;Signal;HPM_P1;HPM_P2
2021/12/10 00:00:41;;;;;;;35.28;16.05;;;;;;;1.56;100.00;99830.63;5091349;28;20024;-71
2021/12/10 00:03:12;;;;;;;35.53;16.77;;;;;;;1.56;100.00;99835.69;5089233;28;20030;-72
2021/12/10 00:05:45;;;;;;;40.50;17.65;;;;;;;1.66;100.00;99826.00;5094249;28;20517;-70
2021/12/10 00:08:11;;;;;;;42.03;18.33;;;;;;;1.79;100.00;99820.69;5087450;28;20036;-71
2021/12/10 00:10:40;;;;;;;29.17;16.33;;;;;;;1.86;100.00;99818.50;5093817;28;20024;-71
2021/12/10 00:13:08;;;;;;;36.38;17.23;;;;;;;1.90;100.00;99809.38;5089372;28;20028;-75
2021/12/10 00:15:36;;;;;;;27.15;14.15;;;;;;;1.99;100.00;99802.19;5087170;28;20023;-71
2021/12/10 00:18:05;;;;;;;25.65;14.13;;;;;;;2.15;100.00;99796.13;5086577;28;20081;-73
2021/12/10 00:20:33;;;;;;;29.63;13.32;;;;;;;2.15;100.00;99797.00;5089470;28;20036;-71
2021/12/10 00:23:03;;;;;;;28.15;14.30;;;;;;;2.22;100.00;99784.59;5087228;28;20043;-72
2021/12/10 00:25:37;;;;;;;31.98;13.85;;;;;;;2.23;100.00;99776.19;5086647;28;20024;-72
2021/12/10 00:28:19;;;;;;;22.02;10.45;;;;;;;2.32;100.00;99772.38;5085684;28;20057;-72
2021/12/10 00:31:16;;;;;;;31.70;14.32;;;;;;;2.31;100.00;99768.13;5084720;28;20032;-71
2021/12/10 00:33:54;;;;;;;20.90;10.90;;;;;;;2.40;100.00;99777.78;5088597;28;20038;-70
2021/12/10 00:36:20;;;;;;;17.77;10.98;;;;;;;2.45;100.00;99756.03;5085086;28;20024;-71
2021/12/10 00:38:47;;;;;;;27.38;12.15;;;;;;;2.44;100.00;99749.22;5087969;28;20032;-72
2021/12/10 00:41:13;;;;;;;20.77;11.07;;;;;;;2.42;100.00;99740.66;5091516;28;20023;-70
2021/12/10 00:43:39;;;;;;;25.30;11.55;;;;;;;2.33;100.00;99737.75;5090794;28;20044;-70
2021/12/10 00:46:05;;;;;;;23.58;10.05;;;;;;;2.34;100.00;99737.78;5089154;28;20107;-71
2021/12/10 00:48:30;;;;;;;21.20;10.88;;;;;;;2.32;100.00;99733.47;5085601;28;20119;-71
2021/12/10 00:50:58;;;;;;;18.65;9.13;;;;;;;2.40;100.00;99724.50;5089667;28;20463;-70
2021/12/10 00:53:23;;;;;;;22.15;10.75;;;;;;;2.26;100.00;99723.06;5070713;28;20367;-71
2021/12/10 00:55:49;;;;;;;22.00;10.30;;;;;;;2.14;100.00;99710.72;5086152;28;20035;-70
2021/12/10 00:58:15;;;;;;;20.10;9.57;;;;;;;2.04;100.00;99709.44;5085981;28;20094;-70
2021/12/10 01:00:45;;;;;;;21.35;9.43;;;;;;;2.03;100.00;99702.66;5084516;28;20567;-70
2021/12/10 01:03:14;;;;;;;18.70;7.93;;;;;;;1.88;100.00;99691.81;5087188;28;20417;-69
2021/12/10 01:05:41;;;;;;;21.42;8.25;;;;;;;1.86;100.00;99686.69;5089184;28;20032;-71
2021/12/10 01:08:08;;;;;;;17.75;8.07;;;;;;;1.81;100.00;99677.16;5089322;28;20028;-70
2021/12/10 01:10:45;;;;;;;17.58;7.80;;;;;;;1.81;100.00;99661.94;5089474;28;20550;-71
2021/12/10 01:13:15;;;;;;;18.85;7.05;;;;;;;1.75;100.00;99661.69;5086892;28;20487;-70
2021/12/10 01:24:51;;;;;;;16.30;7.82;;;;;;;1.64;100.00;99638.44;5086180;28;20042;-70
2021/12/10 01:27:31;;;;;;;21.83;8.75;;;;;;;1.58;100.00;99622.97;5078525;28;20067;-69
2021/12/10 01:30:01;;;;;;;21.35;8.90;;;;;;;1.55;100.00;99623.66;5085821;28;20066;-70
2021/12/10 01:32:31;;;;;;;17.58;8.60;;;;;;;1.47;100.00;99609.81;5085035;28;20031;-70
2021/12/10 01:34:56;;;;;;;;;;;;;;;1.54;100.00;99618.53;5086366;28;20484;-71
2021/12/10 01:37:24;;;;;;;20.42;9.98;;;;;;;1.41;100.00;99607.00;5087845;28;19998;-70
2021/12/10 01:39:52;;;;;;;20.83;9.55;;;;;;;1.37;100.00;99604.25;5080148;28;20052;-70
2021/12/10 01:44:57;;;;;;;19.80;9.65;;;;;;;1.28;100.00;99592.94;5083779;28;20040;-70
2021/12/10 01:47:27;;;;;;;18.05;10.00;;;;;;;1.23;100.00;99589.31;5089794;28;20028;-69
2021/12/10 01:49:53;;;;;;;23.42;10.45;;;;;;;1.19;100.00;99576.47;5093201;28;20055;-70
2021/12/10 01:52:20;;;;;;;20.58;9.57;;;;;;;1.17;100.00;99583.13;5085705;28;20072;-72
2021/12/10 01:54:55;;;;;;;23.45;10.15;;;;;;;1.14;100.00;99573.72;5091831;28;20546;-73
2021/12/10 01:57:25;;;;;;;24.45;11.23;;;;;;;1.14;100.00;99572.84;5093392;28;20432;-71
2021/12/10 01:59:52;;;;;;;27.67;11.00;;;;;;;1.14;100.00;99572.84;5087009;28;20019;-74
2021/12/10 02:02:25;;;;;;;22.42;9.98;;;;;;;1.17;100.00;99567.94;5092432;28;20475;-71
2021/12/10 02:04:51;;;;;;;27.67;10.23;;;;;;;1.17;100.00;99568.81;5092459;28;20032;-71
2021/12/10 02:07:20;;;;;;;24.13;9.38;;;;;;;1.18;100.00;99557.00;5091491;28;20024;-71
2021/12/10 02:09:46;;;;;;;19.90;8.57;;;;;;;1.19;100.00;99559.59;5096026;28;20039;-72
2021/12/10 02:12:12;;;;;;;18.08;9.23;;;;;;;1.20;100.00;99551.19;5088489;28;20028;-72
2021/12/10 02:14:38;;;;;;;22.10;7.90;;;;;;;1.20;100.00;99547.81;5087667;28;20043;-70
2021/12/10 02:17:05;;;;;;;19.85;8.90;;;;;;;1.18;100.00;99540.16;5093285;28;20096;-71
2021/12/10 02:19:31;;;;;;;20.98;8.90;;;;;;;1.18;100.00;99534.22;5085673;28;20722;-70
2021/12/10 02:21:58;;;;;;;18.73;8.85;;;;;;;1.16;100.00;99523.16;5089561;28;20035;-72
2021/12/10 02:24:23;;;;;;;17.33;8.40;;;;;;;1.18;100.00;99527.47;5090977;28;20036;-73
2021/12/10 02:26:53;;;;;;;21.85;8.48;;;;;;;1.19;100.00;99520.75;5090024;28;20032;-71
2021/12/10 02:29:21;;;;;;;17.05;8.18;;;;;;;1.18;100.00;99508.91;5091022;28;20466;-72
2021/12/10 02:31:48;;;;;;;18.95;8.10;;;;;;;1.16;100.00;99507.97;5084910;28;20028;-73
2021/12/10 02:34:13;;;;;;;21.58;7.70;;;;;;;1.20;100.00;99497.16;5087091;28;20046;-71
2021/12/10 02:36:42;;;;;;;13.43;6.63;;;;;;;1.20;100.00;99494.63;5090907;28;20039;-73
2021/12/10 02:39:16;;;;;;;16.13;8.00;;;;;;;1.17;100.00;99481.84;5091506;28;20040;-70
2021/12/10 02:41:42;;;;;;;20.02;7.38;;;;;;;1.19;100.00;99481.09;5090770;28;20031;-72
2021/12/10 02:44:10;;;;;;;16.88;6.75;;;;;;;1.20;100.00;99477.75;5083936;28;20045;-70
2021/12/10 02:46:37;;;;;;;16.57;6.60;;;;;;;1.24;100.00;99471.19;5092286;28;20380;-70
2021/12/10 02:49:04;;;;;;;12.25;5.63;;;;;;;1.27;100.00;99463.69;5089892;28;20067;-72
2021/12/10 02:51:32;;;;;;;14.98;6.28;;;;;;;1.28;100.00;99458.72;5091479;28;20032;-71
2021/12/10 02:53:58;;;;;;;10.88;5.20;;;;;;;1.28;100.00;99461.25;5090557;28;20028;-71
2021/12/10 02:56:24;;;;;;;14.55;5.57;;;;;;;1.36;100.00;99455.63;5089830;28;20497;-72
2021/12/10 02:58:54;;;;;;;13.23;5.15;;;;;;;1.41;100.00;99452.50;5088216;28;20539;-72
2021/12/10 03:01:42;;;;;;;13.98;5.25;;;;;;;1.41;100.00;99444.91;5088595;28;20028;-73
2021/12/10 03:04:09;;;;;;;12.07;5.70;;;;;;;1.40;100.00;99439.78;5081724;28;20124;-72
2021/12/10 03:06:40;;;;;;;10.10;4.78;;;;;;;1.41;100.00;99439.84;5086312;28;20111;-71
2021/12/10 03:09:06;;;;;;;9.27;4.72;;;;;;;1.42;100.00;99433.09;5085610;28;20036;-72
2021/12/10 03:11:34;;;;;;;7.95;4.30;;;;;;;1.45;100.00;99429.00;5091412;28;20079;-70
2021/12/10 03:14:08;;;;;;;15.02;4.93;;;;;;;1.48;100.00;99428.28;5089447;28;20039;-71
2021/12/10 03:16:35;;;;;;;10.23;4.90;;;;;;;1.53;100.00;99427.69;5086964;28;20031;-70
2021/12/10 03:19:00;;;;;;;11.68;4.20;;;;;;;1.53;100.00;99425.16;5092052;28;20055;-69
2021/12/10 03:21:26;;;;;;;12.65;4.68;;;;;;;1.50;100.00;99412.34;5090056;28;20127;-73
2021/12/10 03:23:51;;;;;;;14.52;4.80;;;;;;;1.51;100.00;99419.13;5090740;28;20101;-72
2021/12/10 03:26:20;;;;;;;10.90;4.03;;;;;;;1.53;100.00;99402.34;5090856;28;20436;-70
2021/12/10 03:28:48;;;;;;;9.75;4.32;;;;;;;1.51;100.00;99403.94;5087554;28;20023;-71
2021/12/10 03:31:14;;;;;;;17.75;4.88;;;;;;;1.46;100.00;99389.38;5088337;28;20031;-71
2021/12/10 03:33:41;;;;;;;12.88;4.85;;;;;;;1.45;100.00;99388.47;5086940;28;20035;-72
2021/12/10 03:36:08;;;;;;;14.38;4.97;;;;;;;1.45;100.00;99387.63;5084639;28;20039;-71
2021/12/10 03:38:35;;;;;;;12.10;4.88;;;;;;;1.44;100.00;99381.69;5087617;28;20028;-74
2021/12/10 03:41:01;;;;;;;12.20;4.45;;;;;;;1.45;100.00;99378.34;5089706;28;20035;-71
2021/12/10 03:43:27;;;;;;;11.30;4.47;;;;;;;1.52;100.00;99370.22;5088353;28;20039;-72
2021/12/10 03:45:57;;;;;;;11.32;4.47;;;;;;;1.54;100.00;99370.28;5089808;28;20082;-71
2021/12/10 03:48:28;;;;;;;10.05;4.07;;;;;;;1.57;100.00;99368.72;5087404;28;20058;-69
2021/12/10 03:50:54;;;;;;;10.38;4.22;;;;;;;1.57;100.00;99368.72;5088688;28;20099;-70
2021/12/10 03:53:20;;;;;;;14.13;3.95;;;;;;;1.59;100.00;99364.59;5086083;28;20120;-70
2021/12/10 03:55:47;;;;;;;12.18;4.38;;;;;;;1.66;99.81;99354.69;5090274;28;20111;-70
2021/12/10 03:58:13;;;;;;;10.73;4.20;;;;;;;1.68;99.47;99346.34;5086459;28;20535;-71
2021/12/10 04:00:46;;;;;;;10.48;4.15;;;;;;;1.76;98.84;99341.56;5082771;28;20100;-71
2021/12/10 04:03:13;;;;;;;11.82;4.13;;;;;;;1.80;98.81;99344.28;5087339;28;20094;-72
2021/12/10 04:05:39;;;;;;;9.40;3.50;;;;;;;1.78;99.49;99342.50;5088370;28;20031;-70
2021/12/10 04:08:05;;;;;;;12.30;4.43;;;;;;;1.80;98.69;99326.53;5090042;28;20032;-74
2021/12/10 04:10:30;;;;;;;9.60;4.25;;;;;;;1.82;98.95;99327.47;5067024;28;20391;-71
2021/12/10 04:12:56;;;;;;;9.52;3.60;;;;;;;1.81;99.51;99338.41;5087328;28;20078;-73
2021/12/10 04:15:24;;;;;;;13.77;4.05;;;;;;;1.77;100.00;99328.97;5086491;28;20458;-71
2021/12/10 04:17:54;;;;;;;11.70;3.97;;;;;;;1.75;99.76;99320.41;5086436;28;20823;-71
2021/12/10 04:20:21;;;;;;;9.23;2.95;;;;;;;1.78;99.90;99301.94;5089712;28;20116;-72
2021/12/10 04:22:48;;;;;;;13.30;3.80;;;;;;;1.84;99.25;99313.19;5090366;28;20024;-72
2021/12/10 04:25:16;;;;;;;11.98;3.90;;;;;;;1.78;99.63;99296.88;5086915;28;20028;-71
2021/12/10 04:27:44;;;;;;;12.43;3.63;;;;;;;1.84;99.26;99313.19;5092022;28;20024;-71
2021/12/10 04:30:12;;;;;;;11.00;3.93;;;;;;;1.82;100.00;99293.63;5086605;28;20089;-71
2021/12/10 04:32:39;;;;;;;13.48;3.60;;;;;;;1.84;99.57;99289.50;5088953;28;20453;-71
2021/12/10 04:35:06;;;;;;;10.57;3.30;;;;;;;1.83;99.65;99280.19;5088977;28;20098;-70
2021/12/10 04:37:31;;;;;;;16.05;4.88;;;;;;;1.80;99.30;99268.25;5086907;28;20033;-72
2021/12/10 04:40:00;;;;;;;12.40;4.13;;;;;;;1.79;99.49;99263.13;5084991;28;20071;-71
2021/12/10 04:42:25;;;;;;;10.65;3.90;;;;;;;1.77;99.49;99265.63;5087987;28;20086;-71
2021/12/10 04:44:53;;;;;;;17.00;4.18;;;;;;;1.76;99.73;99263.88;5090848;28;20040;-70
2021/12/10 04:47:19;;;;;;;13.57;4.43;;;;;;;1.71;100.00;99254.38;5087378;28;20024;-71
2021/12/10 04:49:44;;;;;;;10.52;4.57;;;;;;;1.65;100.00;99247.41;5088225;28;20080;-71
2021/12/10 04:52:10;;;;;;;12.27;4.00;;;;;;;1.59;100.00;99235.38;5089702;28;20052;-73
2021/12/10 04:54:36;;;;;;;8.82;3.72;;;;;;;1.58;100.00;99226.06;5085874;28;20032;-70
2021/12/10 04:57:04;;;;;;;11.90;3.58;;;;;;;1.58;100.00;99220.13;5089070;28;20097;-72
2021/12/10 04:59:32;;;;;;;12.32;4.00;;;;;;;1.62;99.36;99227.03;5089998;28;20032;-70
2021/12/10 05:02:00;;;;;;;14.48;3.80;;;;;;;1.68;99.42;99208.66;5084428;28;20028;-71
2021/12/10 05:04:27;;;;;;;10.32;4.28;;;;;;;1.64;99.68;99211.88;5085412;28;20466;-70
2021/12/10 05:06:53;;;;;;;10.57;3.55;;;;;;;1.63;99.91;99210.16;5081073;28;20493;-71
2021/12/10 05:09:20;;;;;;;10.45;4.20;;;;;;;1.59;100.00;99207.50;5080560;28;20398;-71
2021/12/10 05:11:46;;;;;;;11.18;3.60;;;;;;;1.60;100.00;99204.16;5077260;28;20119;-71
2021/12/10 05:14:11;;;;;;;11.88;3.45;;;;;;;1.58;99.69;99194.81;5078618;28;20115;-70
2021/12/10 05:16:42;;;;;;;13.05;3.60;;;;;;;1.61;100.00;99205.88;5088036;28;20690;-69
2021/12/10 05:19:09;;;;;;;8.18;3.40;;;;;;;1.57;100.00;99193.03;5085726;28;20028;-71
2021/12/10 05:21:36;;;;;;;14.30;3.83;;;;;;;1.60;100.00;99201.63;5089976;28;20045;-72
2021/12/10 05:24:04;;;;;;;13.73;3.60;;;;;;;1.64;99.56;99197.56;5089626;28;20102;-73
2021/12/10 05:26:30;;;;;;;12.02;3.00;;;;;;;1.65;99.33;99191.69;5086245;28;20047;-71
2021/12/10 05:28:55;;;;;;;11.18;2.88;;;;;;;1.70;99.25;99197.78;5083711;28;20062;-70
2021/12/10 05:31:22;;;;;;;13.82;2.72;;;;;;;1.74;98.75;99186.94;5090879;28;20512;-70
2021/12/10 05:33:47;;;;;;;11.68;2.47;;;;;;;1.80;98.54;99194.75;5086365;28;20073;-71
2021/12/10 05:36:13;;;;;;;10.23;2.90;;;;;;;1.82;98.02;99192.25;5090208;28;20028;-71
2021/12/10 05:38:38;;;;;;;10.60;3.00;;;;;;;1.81;98.88;99188.00;5091621;28;20499;-73
2021/12/10 05:41:06;;;;;;;11.32;2.50;;;;;;;1.75;99.10;99170.91;5084480;28;20024;-70
2021/12/10 05:43:33;;;;;;;10.52;2.58;;;;;;;1.72;99.53;99165.75;5089924;28;20394;-70
2021/12/10 05:45:59;;;;;;;13.95;2.90;;;;;;;1.70;99.70;99167.38;5087816;28;20023;-71
2021/12/10 05:48:25;;;;;;;10.20;2.70;;;;;;;1.65;100.00;99160.41;5089379;28;20032;-70
2021/12/10 05:50:51;;;;;;;11.52;2.92;;;;;;;1.65;100.00;99165.47;5091312;28;20428;-71
2021/12/10 05:53:17;;;;;;;9.25;2.38;;;;;;;1.61;100.00;99165.34;5081251;28;20058;-70
2021/12/10 05:55:43;;;;;;;8.63;2.17;;;;;;;1.68;100.00;99178.25;5084903;28;20105;-71
2021/12/10 05:58:10;;;;;;;7.80;2.20;;;;;;;1.68;99.95;99160.50;5086914;28;20387;-70
2021/12/10 06:00:48;;;;;;;10.88;2.20;;;;;;;1.73;100.00;99164.94;5087989;28;20024;-71
2021/12/10 06:03:14;;;;;;;12.32;2.45;;;;;;;1.81;98.93;99161.00;5090889;28;20475;-72
2021/12/10 06:05:41;;;;;;;9.02;2.65;;;;;;;1.89;98.40;99153.69;5082940;28;20056;-72
2021/12/10 06:08:09;;;;;;;9.48;2.10;;;;;;;1.94;98.00;99157.22;5082404;28;20032;-71
2021/12/10 06:10:36;;;;;;;7.60;1.80;;;;;;;2.04;98.44;99156.72;5088940;28;20162;-71
2021/12/10 06:13:02;;;;;;;9.45;1.90;;;;;;;2.01;97.65;99156.66;5085983;28;20115;-72
2021/12/10 06:15:29;;;;;;;8.98;1.88;;;;;;;2.05;98.18;99152.53;5085873;28;20036;-71
2021/12/10 06:17:54;;;;;;;6.65;1.88;;;;;;;2.02;98.43;99149.91;5088274;28;20024;-70
2021/12/10 06:20:28;;;;;;;9.77;2.08;;;;;;;2.01;97.42;99149.03;5091565;28;20375;-70
2021/12/10 06:22:54;;;;;;;7.80;1.60;;;;;;;2.07;97.08;99143.31;5082946;28;20020;-70
2021/12/10 06:25:20;;;;;;;6.93;2.13;;;;;;;2.07;96.88;99144.19;5087030;28;20111;-71
2021/12/10 06:27:46;;;;;;;12.15;2.00;;;;;;;2.11;97.25;99138.38;5077717;28;20462;-71
2021/12/10 06:30:19;;;;;;;6.75;1.45;;;;;;;2.14;96.46;99140.19;5072583;28;20031;-70
2021/12/10 06:32:46;;;;;;;8.25;2.00;;;;;;;2.13;96.38;99144.38;5083913;28;20039;-71
2021/12/10 06:35:14;;;;;;;9.38;2.20;;;;;;;2.09;96.84;99136.63;5063373;28;20036;-71
2021/12/10 06:37:41;;;;;;;18.88;1.85;;;;;;;2.03;96.72;99134.72;5087706;28;20035;-70
2021/12/10 06:40:10;;;;;;;10.77;2.15;;;;;;;2.02;96.60;99135.53;5093104;28;20118;-71
2021/12/10 06:42:36;;;;;;;11.38;1.70;;;;;;;1.97;96.90;99136.19;5092899;28;20063;-70
2021/12/10 06:45:06;;;;;;;7.10;1.95;;;;;;;1.96;97.00;99139.53;5090160;28;20048;-75
2021/12/10 06:47:32;;;;;;;9.20;2.03;;;;;;;1.93;97.47;99140.28;5092723;28;20035;-71
2021/12/10 06:49:57;;;;;;;14.27;1.95;;;;;;;1.90;98.04;99137.66;5072676;28;20034;-70
2021/12/10 06:52:23;;;;;;;8.57;1.65;;;;;;;1.90;98.12;99145.25;5075351;28;20036;-71
2021/12/10 06:54:48;;;;;;;8.95;1.98;;;;;;;1.93;97.84;99142.81;5084297;28;20371;-72
2021/12/10 06:57:14;;;;;;;9.68;2.45;;;;;;;1.94;98.13;99146.22;5076221;28;20031;-72
2021/12/10 06:59:39;;;;;;;8.68;2.05;;;;;;;1.95;97.89;99155.56;5072507;28;20035;-71
2021/12/10 07:02:06;;;;;;;8.48;1.92;;;;;;;1.98;97.65;99148.91;5067055;28;20037;-72
2021/12/10 07:04:32;;;;;;;9.73;2.08;;;;;;;1.99;97.57;99149.78;5086592;28;20038;-72
2021/12/10 07:06:57;;;;;;;12.93;2.05;;;;;;;1.95;97.68;99143.75;5072490;28;20036;-71
2021/12/10 07:09:25;;;;;;;13.32;2.15;;;;;;;1.99;97.40;99145.56;5089135;28;20047;-71
2021/12/10 07:11:53;;;;;;;9.27;1.95;;;;;;;1.99;97.69;99137.97;5089903;28;20036;-71
2021/12/10 07:14:18;;;;;;;11.93;2.40;;;;;;;2.09;97.26;99146.75;5090626;28;20114;-70
2021/12/10 07:16:47;;;;;;;13.85;2.10;;;;;;;2.05;96.55;99139.84;5090056;28;20115;-71
2021/12/10 07:19:13;;;;;;;8.77;2.08;;;;;;;2.12;97.17;99160.41;5070093;28;20093;-71
2021/12/10 07:21:40;;;;;;;7.47;1.90;;;;;;;2.11;97.14;99150.19;5081982;28;20031;-73
2021/12/10 07:24:15;;;;;;;7.85;2.17;;;;;;;2.10;97.17;99144.25;5082700;28;20028;-68
2021/12/10 07:26:41;;;;;;;10.88;2.40;;;;;;;2.11;97.51;99147.66;5086960;28;20057;-69
2021/12/10 07:29:08;;;;;;;7.93;1.98;;;;;;;2.02;97.55;99140.63;5102710;28;20554;-69
2021/12/10 07:31:36;;;;;;;9.95;2.20;;;;;;;1.99;97.70;99140.50;5113552;28;20099;-69
2021/12/10 07:34:02;;;;;;;14.50;2.20;;;;;;;2.04;97.39;99141.53;5094708;28;20032;-68
2021/12/10 07:36:28;;;;;;;11.98;2.20;;;;;;;2.02;97.47;99139.75;5094566;28;20096;-69
2021/12/10 07:38:56;;;;;;;8.00;2.17;;;;;;;2.10;97.78;99141.72;5076918;28;20044;-70
2021/12/10 07:41:22;;;;;;;11.32;2.17;;;;;;;2.08;97.52;99130.69;5090055;28;20039;-69
2021/12/10 07:43:47;;;;;;;13.43;2.20;;;;;;;2.11;97.36;99119.78;5092994;28;20102;-69
2021/12/10 07:46:13;;;;;;;15.20;1.98;;;;;;;2.17;96.63;99129.25;5093474;28;20115;-69
2021/12/10 07:48:41;;;;;;;10.60;2.42;;;;;;;2.18;97.22;99131.84;5094418;28;20382;-69
2021/12/10 07:51:10;;;;;;;9.43;2.20;;;;;;;2.26;97.08;99137.19;5085809;28;20136;-70
2021/12/10 07:53:37;;;;;;;10.73;1.92;;;;;;;2.34;96.38;99140.84;5099173;28;20497;-68
2021/12/10 07:56:06;;;;;;;9.80;2.40;;;;;;;2.33;96.94;99139.13;5094861;28;20147;-69
2021/12/10 07:58:33;;;;;;;6.65;1.77;;;;;;;2.34;96.08;99138.28;5062478;28;20040;-69
2021/12/10 08:01:00;;;;;;;14.00;2.50;;;;;;;2.34;96.78;99146.75;5094279;28;20066;-69
2021/12/10 08:03:25;;;;;;;12.65;2.25;;;;;;;2.33;96.53;99147.59;5082971;28;20019;-69
2021/12/10 08:05:53;;;;;;;7.43;2.65;;;;;;;2.38;95.45;99148.59;5084661;28;20367;-68
2021/12/10 08:08:19;;;;;;;10.82;2.47;;;;;;;2.38;94.73;99143.53;5093708;28;20024;-70
2021/12/10 08:10:47;;;;;;;10.15;2.50;;;;;;;2.49;94.68;99154.03;5104705;28;20020;-70
2021/12/10 08:13:15;;;;;;;13.50;2.38;;;;;;;2.49;94.30;99143.00;5094003;28;20016;-69
2021/12/10 08:15:40;;;;;;;9.23;2.28;;;;;;;2.52;94.29;99149.03;5089207;28;20020;-69
2021/12/10 08:18:06;;;;;;;9.20;2.50;;;;;;;2.54;93.66;99147.41;5077015;28;20407;-70
2021/12/10 08:20:33;;;;;;;9.15;3.10;;;;;;;2.57;93.11;99139.06;5110652;28;20320;-68
2021/12/10 08:23:04;;;;;;;12.68;2.20;;;;;;;2.64;94.11;99151.97;5114076;28;20035;-69
2021/12/10 08:25:32;;;;;;;14.60;2.75;;;;;;;2.62;92.65;99155.28;5097955;28;20549;-69
2021/12/10 08:27:58;;;;;;;10.23;2.38;;;;;;;2.62;93.86;99147.69;5087545;28;20020;-70
2021/12/10 08:30:25;;;;;;;11.32;2.50;;;;;;;2.67;92.54;99152.09;5099154;28;20034;-69
2021/12/10 08:32:54;;;;;;;12.48;2.83;;;;;;;2.69;92.05;99150.44;5114475;28;20497;-69
2021/12/10 08:35:23;;;;;;;12.57;3.00;;;;;;;2.68;91.99;99150.41;5097297;28;20020;-68
2021/12/10 08:37:49;;;;;;;12.50;2.50;;;;;;;2.67;91.86;99149.56;5094449;28;20055;-68
2021/12/10 08:40:22;;;;;;;15.15;3.03;;;;;;;2.75;92.36;99154.88;5105288;28;20284;-69
2021/12/10 08:42:49;;;;;;;12.73;2.85;;;;;;;2.76;91.65;99154.03;5112906;28;20047;-68
2021/12/10 08:45:15;;;;;;;8.70;2.70;;;;;;;2.68;91.22;99147.88;5112678;28;20028;-67
2021/12/10 08:47:41;;;;;;;8.13;2.85;;;;;;;2.76;91.95;99146.44;5093764;28;20395;-68
2021/12/10 08:50:08;;;;;;;12.48;2.85;;;;;;;2.76;91.01;99156.59;5091783;28;20035;-68
2021/12/10 08:52:34;;;;;;;7.78;2.97;;;;;;;2.82;91.88;99154.25;5074952;28;20046;-68
2021/12/10 08:55:00;;;;;;;9.63;3.50;;;;;;;2.82;91.24;99153.38;5091676;28;20028;-68
2021/12/10 08:57:26;;;;;;;10.73;3.90;;;;;;;2.80;91.28;99147.41;5058412;28;20403;-69
2021/12/10 08:59:52;;;;;;;15.18;3.88;;;;;;;2.75;92.69;99147.25;5093179;28;20039;-68
2021/12/10 09:02:18;;;;;;;9.45;3.67;;;;;;;2.74;93.78;99159.91;5094043;28;20028;-70
2021/12/10 09:04:44;;;;;;;15.07;4.60;;;;;;;2.60;93.48;99151.81;5092779;28;20169;-69
2021/12/10 09:07:13;;;;;;;13.55;4.28;;;;;;;2.57;94.25;99167.81;5086595;28;20035;-69
2021/12/10 09:09:40;;;;;;;;;;;;;;;2.57;95.05;99167.81;5091366;28;20040;-69
2021/12/10 09:12:12;;;;;;;10.45;4.60;;;;;;;2.45;97.12;99154.75;5092913;28;19919;-69
2021/12/10 09:14:44;;;;;;;17.17;5.15;;;;;;;2.48;97.41;99161.56;5093495;28;20028;-70
2021/12/10 09:17:12;;;;;;;14.27;5.28;;;;;;;2.42;97.04;99162.22;5093352;28;20020;-69
2021/12/10 09:19:40;;;;;;;16.10;5.10;;;;;;;2.54;96.45;99172.78;5075946;28;20098;-68
2021/12/10 09:22:07;;;;;;;12.77;5.00;;;;;;;2.53;96.15;99172.75;5093932;28;20110;-69
2021/12/10 09:24:34;;;;;;;14.27;5.78;;;;;;;2.56;95.81;99166.09;5093113;28;20038;-68
2021/12/10 09:27:01;;;;;;;15.57;5.28;;;;;;;2.60;96.19;99167.03;5086333;28;20459;-70
2021/12/10 09:29:35;;;;;;;16.20;5.90;;;;;;;2.59;94.50;99161.09;5091500;28;20062;-68
2021/12/10 09:32:04;;;;;;;14.63;5.70;;;;;;;2.77;93.33;99180.28;5093101;28;20028;-69
2021/12/10 09:34:30;;;;;;;16.25;5.57;;;;;;;2.85;93.36;99173.75;5095548;28;20040;-69
2021/12/10 09:36:56;;;;;;;14.35;5.05;;;;;;;2.93;92.71;99170.66;5092773;28;20026;-68
2021/12/10 09:39:22;;;;;;;16.80;5.40;;;;;;;3.04;92.13;99171.00;5091411;28;20028;-68
2021/12/10 09:41:48;;;;;;;12.98;4.80;;;;;;;3.15;91.86;99169.63;5091351;28;20103;-68
2021/12/10 09:44:21;;;;;;;14.45;4.63;;;;;;;3.27;90.86;99174.22;5055746;28;20499;-69
2021/12/10 09:46:53;;;;;;;15.70;5.15;;;;;;;3.29;90.79;99165.00;5078662;28;20356;-69
2021/12/10 09:49:23;;;;;;;12.70;4.68;;;;;;;3.40;90.55;99178.88;5086803;28;20078;-68
2021/12/10 09:51:52;;;;;;;17.88;4.95;;;;;;;3.38;89.26;99161.84;5079598;28;20020;-68
2021/12/10 09:54:21;;;;;;;13.18;4.95;;;;;;;3.42;89.48;99168.75;5105681;28;20031;-67
2021/12/10 09:56:54;;;;;;;14.52;4.85;;;;;;;3.51;90.00;99174.09;5092238;28;20032;-68
2021/12/10 09:59:22;;;;;;;11.10;4.32;;;;;;;3.56;89.09;99154.75;5093386;28;20032;-68
2021/12/10 10:01:52;;;;;;;11.68;4.50;;;;;;;3.66;89.40;99164.38;5096784;28;20081;-68
2021/12/10 10:04:20;;;;;;;10.80;4.53;;;;;;;3.79;88.22;99178.28;5075372;28;20483;-68
2021/12/10 10:07:00;;;;;;;11.00;3.80;;;;;;;3.75;89.00;99169.69;5094964;28;20119;-68
2021/12/10 10:09:33;;;;;;;10.98;4.43;;;;;;;3.75;87.07;99163.75;5095319;28;20062;-67
2021/12/10 10:12:06;;;;;;;13.40;4.18;;;;;;;3.81;87.02;99178.31;5078036;28;20035;-68
2021/12/10 10:14:33;;;;;;;12.60;4.10;;;;;;;3.82;87.53;99185.13;5096392;28;20405;-68
2021/12/10 10:16:59;;;;;;;13.63;4.40;;;;;;;3.80;87.42;99181.69;5094870;28;20038;-69
2021/12/10 10:19:26;;;;;;;12.77;4.05;;;;;;;3.77;85.64;99174.84;5095813;28;20107;-68
2021/12/10 10:21:54;;;;;;;12.02;3.80;;;;;;;3.74;86.51;99173.06;5074703;28;20052;-67
2021/12/10 10:24:21;;;;;;;13.90;3.70;;;;;;;3.79;86.44;99187.59;5093553;28;20474;-68
2021/12/10 10:26:53;;;;;;;10.48;3.40;;;;;;;3.75;86.18;99174.78;5085166;28;20029;-68
2021/12/10 10:29:22;;;;;;;11.48;3.50;;;;;;;3.83;87.45;99177.56;5077520;28;20032;-69
2021/12/10 10:31:54;;;;;;;10.50;3.58;;;;;;;3.86;85.65;99172.53;5096129;28;20027;-67
2021/12/10 10:34:21;;;;;;;12.85;4.00;;;;;;;3.86;87.36;99177.63;5094330;28;20039;-68
2021/12/10 10:36:47;;;;;;;9.98;3.92;;;;;;;3.89;86.87;99180.28;5082259;28;20025;-69
2021/12/10 10:39:21;;;;;;;8.70;3.95;;;;;;;3.93;85.88;99173.56;5085500;28;20036;-68
2021/12/10 10:41:53;;;;;;;11.88;3.78;;;;;;;3.98;85.69;99184.75;5095326;28;20024;-68
2021/12/10 10:44:21;;;;;;;13.73;4.30;;;;;;;3.99;85.83;99184.78;5093613;28;20040;-68
2021/12/10 10:46:48;;;;;;;9.45;3.65;;;;;;;3.98;86.33;99180.50;5084708;28;20028;-67
2021/12/10 10:49:50;;;;;;;9.65;3.53;;;;;;;4.07;86.44;99177.38;5084352;28;20020;-68
2021/12/10 10:52:21;;;;;;;12.60;4.18;;;;;;;4.08;85.93;99190.94;5076599;28;20032;-70
2021/12/10 10:54:49;;;;;;;9.77;3.85;;;;;;;4.03;86.18;99185.72;5095785;28;20063;-69
2021/12/10 10:57:19;;;;;;;12.68;3.50;;;;;;;4.03;86.34;99178.09;5096928;28;20382;-68
2021/12/10 10:59:48;;;;;;;8.82;3.33;;;;;;;4.01;86.49;99178.06;5104419;27;20029;-67
2021/12/10 11:02:20;;;;;;;16.67;4.18;;;;;;;4.07;85.86;99182.47;5090833;28;20468;-69
2021/12/10 11:04:49;;;;;;;9.05;3.45;;;;;;;4.11;86.60;99193.56;5093269;28;20055;-69
2021/12/10 11:07:24;;;;;;;11.07;3.60;;;;;;;3.95;85.92;99185.53;5095071;28;20031;-67
2021/12/10 11:10:03;;;;;;;11.50;3.85;;;;;;;3.90;86.17;99178.59;5093948;28;20162;-68
2021/12/10 11:12:34;;;;;;;8.98;3.30;;;;;;;3.85;87.54;99177.59;5094369;28;20042;-68
2021/12/10 11:15:01;;;;;;;10.23;3.42;;;;;;;3.88;87.45;99187.84;5073871;28;20117;-68
2021/12/10 11:17:47;;;;;;;9.63;3.65;;;;;;;3.92;87.32;99202.38;5089384;28;20027;-70
2021/12/10 11:20:20;;;;;;;13.35;3.55;;;;;;;3.92;87.90;99195.59;5081158;28;20039;-69
2021/12/10 11:22:52;;;;;;;10.63;3.88;;;;;;;3.88;86.53;99187.84;5092358;28;20020;-70
2021/12/10 11:25:25;;;;;;;11.00;3.60;;;;;;;3.95;86.66;99203.34;5093586;28;20055;-68
2021/12/10 11:28:00;;;;;;;11.77;4.10;;;;;;;3.90;85.80;99189.63;5089012;28;20111;-68
2021/12/10 11:30:28;;;;;;;11.35;3.58;;;;;;;3.95;88.34;99190.63;5093241;28;20028;-70
2021/12/10 11:33:03;;;;;;;7.15;3.10;;;;;;;3.98;86.53;99193.22;5092740;28;20028;-69
2021/12/10 11:35:57;;;;;;;11.27;3.30;;;;;;;4.01;86.25;99202.66;5094113;28;20028;-68
2021/12/10 11:38:29;;;;;;;10.65;3.00;;;;;;;4.04;85.94;99202.72;5084129;28;20067;-69
2021/12/10 11:41:00;;;;;;;14.73;3.30;;;;;;;4.08;85.46;99209.63;5079282;28;20490;-67
2021/12/10 11:49:06;;;;;;;11.30;3.20;;;;;;;4.08;86.08;99209.63;5092763;28;20036;-68
2021/12/10 11:51:36;;;;;;;9.63;3.03;;;;;;;4.10;85.79;99218.13;5082499;28;20024;-68
2021/12/10 11:54:27;;;;;;;8.25;2.65;;;;;;;4.06;85.13;99205.28;5087714;28;20024;-70